Home > Products > Valid Products > MTR

000
SAUS45 KFGZ 020758
MTRFLG
METAR KFLG 020757Z AUTO 00000KT 10SM CLR 12/10 A3032 RMK AO2 SLP178
T01220100 TSNO





000
SAUS45 KFGZ 020658
MTRFLG
METAR KFLG 020657Z AUTO 00000KT 10SM CLR 13/09 A3034 RMK AO2 SLP177
T01330094 402390111 TSNO





000
SAUS45 KFGZ 020558
MTRFLG
METAR KFLG 020557Z AUTO 22008KT 10SM FEW100 14/09 A3033 RMK AO2
SLP168 60000 T01440094 10167 20133 53010 TSNO





000
SAUS45 KFGZ 020458
MTRFLG
METAR KFLG 020457Z AUTO 00000KT 10SM CLR 14/11 A3032 RMK AO2 SLP169
T01390111 TSNO





000
SAUS45 KFGZ 020358
MTRFLG
METAR KFLG 020357Z 00000KT 10SM CLR 13/11 A3031 RMK AO2 SLP171
T01330111





000
SAUS45 KFGZ 020258
MTRFLG
METAR KFLG 020257Z AUTO 00000KT 10SM CLR 16/09 A3030 RMK AO2 SLP170
60000 T01560089 55003 TSNO





000
SAUS45 KFGZ 020058
MTRFLG
METAR KFLG 020057Z VRB03KT 10SM CLR 16/09 A3030 RMK AO2 RAE00 SLP175
P0000 T01560094





000
SAUS45 KFGZ 012359 COR
MTRFLG
METAR KFLG 012357Z VRB06G14KT 10SM -RA FEW014 BKN110 16/10 A3031 RMK
AO2 RAE20B43 TSE20 SLP183 P0000 60040 T01560100 10239 20139 56010





000
SAUS45 KFGZ 012327
MTRFLG
SPECI KFLG 012326Z VRB03KT 10SM SCT095 BKN120 16/12 A3030 RMK AO2
RAE20 TSE20 P0000 T01560122





000
SAUS45 KFGZ 012258
MTRFLG
METAR KFLG 012257Z VRB04KT 9SM TSRA FEW041 SCT065 OVC100 17/11 A3031
RMK AO2 SLP181 P0000 T01720106





000
SAUS45 KFGZ 012158
MTRFLG
METAR KFLG 012157Z 21003KT 10SM TSRA FEW070 FEW090 OVC110 15/13
A3033 RMK AO2 SLP191 P0003 T01500128





000
SAUS45 KFGZ 012058
MTRFLG
METAR KFLG 012057Z 7SM TSRA FEW019 BKN060 BKN110 15/11 A3035 RMK AO2
RAE24B40GRB40E47 TSE24B40 SLP196 OCNL LTGCG OVHD TS OVHD MOV E VIS
S2 P0033 60037 T01500111 57004





000
SAUS45 KFGZ 012050 COR
MTRFLG
SPECI KFLG 012047Z 14012G21KT 7SM TSRA FEW021 BKN060 OVC075 15/11
A3034 RMK AO2 RAE24B40GRB40E47 TSE24B40 OCNL LTGCG OVHD TS OVHD MOV
E GR 1/4 P0030 T01500106





000
SAUS45 KFGZ 012049 COR
MTRFLG
SPECI KFLG 012047Z 14012G21KT 7SM TSRA FEW021 BKN060 OVC075 15/11
A3034 RMK AO2 RAE24B40GRB40E47 TSE24B40 OCNL LTGCG OVHD TS OVHD MOV
E GR 1/4 P0030 T01500106





000
SAUS45 KFGZ 012048
MTRFLG
SPECI KFLG 012047Z 14012G21KT 7SM TSRA FEW021 BKN060 OVC075 15/11
A3034 RMK AO2 RAE24B40GRB40E47 TSE24B40 OCNL LTGCG OVHD TS OVHD MOV
E GR 1/4 P0030 T01500106





000
SAUS45 KFGZ 012042
MTRFLG
SPECI KFLG 012040Z 22013G18KT 1 1/2SM +TSRAGR FEW021 OVC055 16/13
A3037 RMK AO2 RAE24B40GRB40 TSE24B40 PRESRR OCNL LTGCG OVHD TS OVHD
MOV E GR 1/4 P0011 T01560128





000
SAUS45 KFGZ 012032
MTRFLG
SPECI KFLG 012030Z 00000KT 10SM VCTS BKN060 OVC075 16/13 A3034 RMK
AO2 RAE24 TSE24 OCNL LTGCG NE, SE P0011 T01610133





000
SAUS45 KFGZ 011959 COR
MTRFLG
METAR KFLG 011957Z 26004KT 7SM TSRA SCT060 BKN090 OVC110 18/12 A3035
RMK AO2 RAE07B44 TSB52 SLP189 OCNL LTGCGCC NE,SE TS NE,SE MOV E
P0004 T01830122





000
SAUS45 KFGZ 011858
MTRFLG
METAR KFLG 011857Z 10004KT 10SM -RA FEW046 FEW060 OVC090 21/12 A3036
RMK AO2 RAB48 SLP185 P0000 T02110117





000
SAUS45 KFGZ 011758
MTRFLG
METAR KFLG 011757Z 30007KT 230V330 10SM FEW095 23/09 A3036 RMK AO2
SLP180 60003 T02330094 10233 20117 57002





000
SAUS45 KFGZ 011658
MTRFLG
METAR KFLG 011657Z 20007KT 10SM CLR 22/13 A3037 RMK AO2 SLP185 MOD
CU N T02170128





000
SAUS45 KFGZ 011558
MTRFLG
METAR KFLG 011557Z 24005KT 10SM CLR 19/11 A3037 RMK AO2 SLP189
T01890106





000
SAUS45 KFGZ 011458
MTRFLG
METAR KFLG 011457Z 25004KT 10SM FEW120 16/12 A3037 RMK AO2 SLP199
60003 T01560117 53004





000
SAUS45 KFGZ 011358
MTRFLG
METAR KFLG 011357Z 00000KT 10SM BKN100 OVC120 13/11 A3036 RMK AO2
SLP200 T01330111





000
SAUS45 KFGZ 011258
MTRFLG
METAR KFLG 011257Z 19007KT 10SM FEW012 BKN070 OVC085 13/11 A3035 RMK
AO2 RAB36E54 SLP198 P0003 T01280106





000
SAUS45 KFGZ 011159
MTRFLG
METAR KFLG 011157Z AUTO 00000KT 10SM SCT070 BKN090 12/11 A3035 RMK
AO2 SLP200 70065 T01170111 10139 20111 53006 TSNO





000
SAUS45 KFGZ 011058 COR
MTRRQE
METAR KRQE 011053Z AUTO 00000KT 10SM BKN120 16/13 A3030 RMK AO2
SLP154 T01610128 TSNO





000
SAUS45 KFGZ 011058
MTRFLG
METAR KFLG 011057Z AUTO 00000KT 10SM FEW075 11/11 A3035 RMK AO2
SLP201 T01110106 TSNO





000
SAUS45 KFGZ 010959
MTRFLG
METAR KFLG 010957Z AUTO 00000KT 10SM CLR 12/11 A3033 RMK AO2 SLP192
T01170106 TSNO





000
SAUS45 KFGZ 010902 COR
MTRFLG
METAR KFLG 010857Z AUTO 00000KT 10SM CLR 12/11 A3033 RMK AO2 SLP182
T01220111 58006 TSNO





000
SAUS45 KFGZ 010758
MTRFLG
METAR KFLG 010757Z AUTO 00000KT 10SM OVC110 13/12 A3034 RMK AO2
SLP182 T01280117 TSNO





000
SAUS45 KFGZ 010658
MTRFLG
METAR KFLG 010657Z AUTO 09003KT 10SM BKN100 13/12 A3035 RMK AO2
SLP172 T01330122 402670122 TSNO





000
SAUS45 KFGZ 010558
MTRFLG
METAR KFLG 010557Z AUTO 00000KT 10SM BKN100 OVC110 13/12 A3035 RMK
AO2 SLP170 60007 T01330122 10150 20133 55001 TSNO





000
SAUS45 KFGZ 010557 COR
MTRRQE
METAR KRQE 010553Z AUTO 11007KT 10SM FEW100 17/13 A3032 RMK AO2
RAE04 SLP136 P0000 60000 T01720128 10200 20172 58002 TSNO





000
SAUS45 KFGZ 010458
MTRFLG
METAR KFLG 010457Z AUTO 23003KT 10SM OVC110 13/12 A3035 RMK AO2
SLP170 T01330122 TSNO





000
SAUS45 KFGZ 010358
MTRFLG
METAR KFLG 010357Z 27005KT 10SM FEW075 BKN090 14/12 A3035 RMK AO2
RAE52 SLP174 P0001 T01390122





000
SAUS45 KFGZ 010258
MTRFLG
METAR KFLG 010257Z 25004KT 10SM -RA OVC090 14/12 A3036 RMK AO2
SLP182 P0005 60006 T01390122 56010





000
SAUS45 KFGZ 010158
MTRFLG
METAR KFLG 010157Z 29006KT 10SM -RA FEW075 OVC090 14/12 A3038 RMK
AO2 RAB13E23B39 SLP196 P0001 T01390117





000
SAUS45 KFGZ 010058
MTRFLG
METAR KFLG 010057Z 00000KT 10SM FEW075 OVC100 14/13 A3035 RMK AO2
RAE36 SLP200 P0000 T01440128





000
SAUS45 KFGZ 312359
MTRFLG
METAR KFLG 312357Z 01006KT 10SM -RA OVC080 15/13 A3039 RMK AO2 TSE02
SLP210 P0002 60058 T01500133 10267 20133 50013





000
SAUS45 KFGZ 312350 COR
MTRRQE
SPECI KRQE 312342Z AUTO 36004KT 10SM -RA OVC085 19/11 A3031 RMK AO2
WSHFT 2322 RAE02B39 P0000 T01890111 TSNO





000
SAUS45 KFGZ 312348 COR
MTRRQE
SPECI KRQE 312342Z AUTO 36004KT 10SM -RA OVC085 19/11 A3031 RMK AO2
WSHFT 2322 RAE02B39 P0000 T01890111 TSNO





000
SAUS45 KFGZ 312347 COR
MTRRQE
SPECI KRQE 312342Z AUTO 36004KT 10SM -RA OVC085 19/11 A3031 RMK AO2
WSHFT 2322 RAE02B39 P0000 T01890111 TSNO





000
SAUS45 KFGZ 312346 COR
MTRRQE
SPECI KRQE 312342Z AUTO 36004KT 10SM -RA OVC085 19/11 A3031 RMK AO2
WSHFT 2322 RAE02B39 P0000 T01890111 TSNO





000
SAUS45 KFGZ 312309
MTRFLG
SPECI KFLG 312308Z 33006KT 10SM -RA FEW060 OVC080 14/12 A3040 RMK
AO2 TSE02 P0000 T01390122





000
SAUS45 KFGZ 312301 COR
MTRFLG
METAR KFLG 312257Z 06004KT 6SM TSRA BR BKN065 OVC085 14/12 A3040 RMK
AO2 TSB00 SLP216 OCNL LTGICCG OVH TS OVH MOV LTL P0014 T01390117





000
SAUS45 KFGZ 312259 COR
MTRFLG
METAR KFLG 312257Z 06004KT 6SM TSRA BR BKN065 OVC085 14/12 A3040 RMK
AO2 TSB00 SLP216 OCNL LTGICCG OVH TS OVH MOV LTL P0014 T01390117





000
SAUS45 KFGZ 312222
MTRFLG
SPECI KFLG 312221Z 18004KT 3SM TSRA BR SCT049 BKN070 OVC085 14/12
A3040 RMK AO2 TSB00 P0010 T01390117





000
SAUS45 KFGZ 312216
MTRFLG
SPECI KFLG 312215Z 28004KT 1 3/4SM TSRA BKN047 BKN070 OVC085 14/11
A3040 RMK AO2 TSB00 P0009 T01390111





000
SAUS45 KFGZ 312209
MTRFLG
SPECI KFLG 312208Z 27005KT 2SM TSRA SCT043 BKN070 OVC085 14/11 A3040
RMK AO2 TSB00 P0005 T01390111





000
SAUS45 KFGZ 312158
MTRFLG
METAR KFLG 312157Z AUTO VRB05G17KT 1SM TSRA SCT028 BKN070 OVC090
14/11 A3040 RMK AO2 VIS 1/2V2 1/2 SLP210 OCNL LTGCG OHD MOV E TS OVH
MOV E P0028 T01440111





000
SAUS45 KFGZ 312152
MTRFLG
SPECI KFLG 312151Z 25009G17KT 1 1/2SM TSRA FEW025 SCT070 OVC090
16/12 A3040 RMK AO2 P0006





000
SAUS45 KFGZ 312100 COR
MTRFLG
METAR KFLG 312057Z 16006KT 10SM -TSRA FEW050 BKN070 BKN085 18/11
A3035 RMK AO2 RAB52 TSB51 SLP181 OCNL LTGCG S TS S MOV E P0000 60014
T01830106 53002





000
SAUS45 KFGZ 312059 COR
MTRFLG
METAR KFLG 312057Z 16006KT 10SM -TSRA FEW050 BKN070 BKN085 18/11
A3035 RMK AO2 RAB52 TSB51 SLP181 OCNL LTGCG S TS S MOV E P0000 60014
T01830106 53002





000
SAUS45 KFGZ 311958
MTRFLG
METAR KFLG 311957Z 01003KT 10SM FEW090 BKN110 19/16 A3033 RMK AO2 PK
WND 22037/1918 RAB21E48 SLP170 TS OVHD LGT CC CG P0014 T01940161





000
SAUS45 KFGZ 311858
MTRFLG
METAR KFLG 311857Z 18013G21KT 10SM BKN080 BKN095 26/08 A3033 RMK AO2
SLP150 CB N-NE MOV LTL T02560083





000
SAUS45 KFGZ 311758
MTRFLG
METAR KFLG 311757Z 24011KT 10SM FEW070 26/08 A3034 RMK AO2 SLP150
T02610083 10261 20122 58002





000
SAUS45 KFGZ 311658
MTRFLG
METAR KFLG 311657Z 28003KT 10SM BKN065 26/08 A3035 RMK AO2 SLP157
T02560083





000
SAUS45 KFGZ 311558
MTRFLG
METAR KFLG 311557Z 23006KT 10SM CLR 24/09 A3034 RMK AO2 SLP155
T02390089





000
SAUS45 KFGZ 311458
MTRFLG
METAR KFLG 311457Z 21006KT 10SM CLR 22/09 A3035 RMK AO2 SLP155
T02170089 51006





000
SAUS45 KFGZ 311358
MTRFLG
METAR KFLG 311357Z 22005KT 8SM CLR 18/09 A3034 RMK AO2 SLP155
T01830089





000
SAUS45 KFGZ 311357
MTRRQE
METAR KRQE 311353Z AUTO 00000KT 10SM CLR 18/13 A3032 RMK AO2 SLP128
T01830128 TSNO





000
SAUS45 KFGZ 311258
MTRFLG
METAR KFLG 311257Z 00000KT 10SM CLR 12/08 A3033 RMK AO2 SLP163
T01220078





000
SAUS45 KFGZ 311158
MTRFLG
METAR KFLG 311157Z AUTO 00000KT 10SM CLR 13/08 A3033 RMK AO2 SLP158
T01330078 10206 20128 53003 TSNO





000
SAUS45 KFGZ 311059
MTRFLG
METAR KFLG 311057Z AUTO 00000KT 10SM CLR 13/08 A3032 RMK AO2 SLP156
T01280078 TSNO





000
SAUS45 KFGZ 311058 COR
MTRRQE
METAR KRQE 311053Z AUTO 00000KT 10SM FEW100 17/12 A3029 RMK AO2
SLP117 T01720117 TSNO





000
SAUS45 KFGZ 310958
MTRFLG
METAR KFLG 310957Z AUTO 00000KT 10SM CLR 15/08 A3031 RMK AO2 SLP151
T01500083 TSNO





000
SAUS45 KFGZ 310858
MTRFLG
METAR KFLG 310857Z AUTO 22004KT 10SM CLR 16/08 A3032 RMK AO2 SLP146
T01610078 58009 TSNO





000
SAUS45 KFGZ 310758
MTRFLG
METAR KFLG 310757Z AUTO 00000KT 10SM CLR 17/07 A3033 RMK AO2 SLP151
T01720072 TSNO





000
SAUS45 KFGZ 310658
MTRFLG
METAR KFLG 310657Z AUTO 00000KT 10SM CLR 19/07 A3034 RMK AO2 SLP153
T01890072 402890106 TSNO





000
SAUS45 KFGZ 310558
MTRFLG
METAR KFLG 310557Z AUTO 26003KT 10SM CLR 21/07 A3035 RMK AO2 SLP155
T02060067 10283 20189 51012 TSNO





000
SAUS45 KFGZ 310458
MTRFLG
METAR KFLG 310457Z AUTO 24005KT 10SM CLR 20/07 A3034 RMK AO2 SLP159
T02000072 TSNO





000
SAUS45 KFGZ 310358
MTRFLG
METAR KFLG 310357Z 22005KT 10SM CLR 21/07 A3033 RMK AO2 SLP155
T02060072





000
SAUS45 KFGZ 310358 COR
MTRRQE
METAR KRQE 310353Z AUTO 00000KT 10SM CLR 23/06 A3027 RMK AO2 SLP113
T02280061 TSNO





000
SAUS45 KFGZ 310358 COR
MTRRQE
METAR KRQE 310353Z AUTO 00000KT 10SM CLR 23/06 A3027 RMK AO2 SLP113
T02280061 TSNO





000
SAUS45 KFGZ 310358
MTRFLG
METAR KFLG 310357Z 22005KT 10SM CLR 21/07 A3033 RMK AO2 SLP155
T02060072





000
SAUS45 KFGZ 310258
MTRFLG
METAR KFLG 310257Z 25005KT 10SM CLR 24/07 A3031 RMK AO2 SLP143
T02390067 53006





000
SAUS45 KFGZ 310158
MTRFLG
METAR KFLG 310157Z 25009KT 10SM CLR 26/06 A3029 RMK AO2 SLP141
T02610061





000
SAUS45 KFGZ 310058
MTRFLG
METAR KFLG 310057Z 28008KT 240V300 10SM FEW090 27/05 A3028 RMK AO2
SLP149 T02720050





000
SAUS45 KFGZ 302358
MTRFLG
METAR KFLG 302357Z 26007KT 10SM BKN090 28/04 A3029 RMK AO2 SLP146
T02780044 10289 20244 58013





000
SAUS45 KFGZ 302258
MTRFLG
METAR KFLG 302257Z 23010G16KT 10SM CLR 28/06 A3030 RMK AO2 SLP148
T02780056





000
SAUS45 KFGZ 302258 COR
MTRRQE
METAR KRQE 302253Z AUTO VRB06KT 10SM BKN095 BKN110 31/05 A3024 RMK
AO2 SLP104 T03110050 TSNO





000
SAUS45 KFGZ 302158
MTRFLG
METAR KFLG 302157Z 25007G19KT 10SM CLR 27/04 A3032 RMK AO2 SLP153
T02720044





000
SAUS45 KFGZ 302101 COR
MTRRQE
METAR KRQE 302053Z AUTO 31008KT 10SM FEW040 BKN100 OVC120 28/08
A3029 RMK AO2 RAB26E37 SLP121 P0000 60000 T02780078 55004 TSNO





000
SAUS45 KFGZ 302059
MTRFLG
METAR KFLG 302057Z 25010G17KT 10SM BKN085 28/04 A3033 RMK AO2 SLP151
T02780044 56006





000
SAUS45 KFGZ 302059 COR
MTRRQE
METAR KRQE 302053Z AUTO 31008KT 10SM FEW040 BKN100 OVC120 28/08
A3029 RMK AO2 RAB26E37 SLP121 P0000 60000 T02780078 55004 TSNO





000
SAUS45 KFGZ 302058 COR
MTRRQE
METAR KRQE 302053Z AUTO 31008KT 10SM FEW040 BKN100 OVC120 28/08
A3029 RMK AO2 RAB26E37 SLP121 P0000 60000 T02780078 55004 TSNO





000
SAUS45 KFGZ 301958
MTRFLG
METAR KFLG 301957Z 22012KT 10SM SCT085 27/06 A3034 RMK AO2 SLP154
T02720061 $





000
SAUS45 KFGZ 301858
MTRFLG
METAR KFLG 301857Z 25009G17KT 10SM BKN070 BKN090 25/07 A3035 RMK AO2
SLP160 T02500067 $





000
SAUS45 KFGZ 301758
MTRFLG
METAR KFLG 301757Z VRB03KT 10SM BKN070 BKN085 25/07 A3035 RMK AO2
SLP163 T02500067 10250 20106 58002 $





000
SAUS45 KFGZ 301658
MTRFLG
METAR KFLG 301657Z VRB05KT 10SM BKN065 23/08 A3036 RMK AO2 SLP165
T02330083 $





000
SAUS45 KFGZ 301558
MTRFLG
METAR KFLG 301557Z 00000KT 10SM FEW060 23/09 A3036 RMK AO2 SLP162
T02280089 $





000
SAUS45 KFGZ 301557 COR
MTRRQE
METAR KRQE 301553Z AUTO 00000KT 10SM CLR 25/10 A3031 RMK AO2 SLP126
T02500100 TSNO





000
SAUS45 KFGZ 301458
MTRFLG
METAR KFLG 301457Z 00000KT 10SM CLR 21/10 A3036 RMK AO2 SLP167
T02060100 53008





000
SAUS45 KFGZ 301358
MTRFLG
METAR KFLG 301357Z 00000KT 10SM CLR 16/09 A3035 RMK AO2 SLP171
T01560094





000
SAUS45 KFGZ 301357
MTRRQE
METAR KRQE 301353Z AUTO 31003KT 10SM CLR 18/11 A3030 RMK AO2 SLP126
T01830111 TSNO





000
SAUS45 KFGZ 301258
MTRFLG
METAR KFLG 301257Z AUTO 00000KT 10SM CLR 11/08 A3034 RMK AO2 SLP174
T01060078 TSNO





000
SAUS45 KFGZ 301158 COR
MTRRQE
METAR KRQE 301153Z AUTO 00000KT 10SM CLR 14/11 A3031 RMK AO2 SLP132
T01390111 10217 20139 55001 TSNO





000
SAUS45 KFGZ 301158
MTRFLG
METAR KFLG 301157Z AUTO 00000KT 10SM CLR 12/08 A3033 RMK AO2 SLP167
T01170083 10183 20117 55002 TSNO





000
SAUS45 KFGZ 301058
MTRFLG
METAR KFLG 301057Z AUTO 00000KT 10SM CLR 13/08 A3033 RMK AO2 SLP165
T01280083 TSNO





000
SAUS45 KFGZ 300958
MTRFLG
METAR KFLG 300957Z AUTO 31003KT 10SM CLR 15/08 A3033 RMK AO2 SLP165
T01500083 TSNO





000
SAUS45 KFGZ 300958 COR
MTRRQE
METAR KRQE 300953Z AUTO 00000KT 10SM FEW110 17/12 A3030 RMK AO2
SLP121 T01670117 TSNO





000
SAUS45 KFGZ 300859
MTRFLG
METAR KFLG 300857Z AUTO 00000KT 10SM CLR 17/08 A3034 RMK AO2 SLP159
T01670083 58005 TSNO





    US Dept of Commerce
    National Oceanic and Atmospheric Administration
    National Weather Service
    1325 East West Highway
    Silver Spring, MD 20910
    Page Author: NWS Internet Services Team
Disclaimer
Information Quality
Credits
Glossary
Privacy Policy
Freedom of Information Act (FOIA)
About Us
Career Opportunities